Terminal Aerodrome Forecast
Issued by NWS

Home | Current Version | Previous Version | Text Only | Print | Product List | Glossary On
Versions: 1 2 3 4 5 6 7 8 9 10 11 12 13 14 15 16 17 18 19
000
FTUS43 KSGF 211100
TAFBBG
TAF
KBBG 211127Z 2112/2212 VRB03KT 1/4SM FG BKN035
      TEMPO 2112/2114 1SM BR VV004
     FM211430 VRB03KT 4SM BR SCT004
     FM211530 VRB04KT P6SM SKC
     FM220600 VRB04KT 5SM BR SCT100=

USA.gov is the U.S. government's official web portal to all federal, state and local government web resources and services.